Date,TemperatureHighF,TemperatureAvgF,TemperatureLowF,DewpointHighF,DewpointAvgF,DewpointLowF,HumidityHigh,HumidityAvg,HumidityLow,PressureMaxIn,PressureMinIn,WindSpeedMaxMPH,WindSpeedAvgMPH,GustSpeedMaxMPH,PrecipitationSumIn
2014-1-1,40,31,21,27,22,15,85,69,51,30.07,29.83,7,1,10,0.00
2014-1-2,33,30,20,28,26,18,93,85,71,29.83,29.28,10,2,15,0.00
2014-1-3,20,15,7,18,8,0,92,74,51,30.13,29.27,18,5,28,0.00
2014-1-4,28,16,4,16,9,0,88,73,54,30.18,29.93,9,1,15,0.08
2014-1-5,49,32,16,48,30,13,98,94,87,29.95,29.37,6,0,11,0.41
2014-1-6,57,40,11,57,33,-3,99,78,46,29.59,29.09,23,5,32,0.35
2014-1-7,11,7,2,-2,-8,-13,61,50,42,30.08,29.59,22,5,31,0.00
2014-1-8,25,19,6,11,7,-2,76,58,38,30.24,30.08,4,0,12,0.00
2014-1-9,36,27,22,21,16,11,73,62,43,30.32,30.15,6,1,9,0.00
2014-1-10,38,33,28,37,30,21,96,89,73,30.22,29.83,2,0,3,0.41
2014-1-11,60,51,38,60,51,37,99,98,96,29.82,29.04,14,2,17,0.65
2014-1-12,51,42,30,50,33,27,98,73,60,29.77,29.13,18,3,26,0.00
2014-1-13,57,42,28,40,34,26,96,75,52,29.79,29.54,11,2,15,0.00
2014-1-14,48,46,40,46,43,39,96,90,72,29.56,29.36,8,1,10,0.23
2014-1-15,46,38,33,45,37,32,98,96,94,29.65,29.55,8,1,11,0.01
2014-1-16,38,33,25,26,24,21,86,70,58,29.64,29.52,11,1,12,0.01
2014-1-17,47,34,24,33,28,21,95,79,58,29.65,29.49,6,1,8,0.00
2014-1-18,39,31,21,33,22,11,91,70,54,29.61,29.39,24,4,25,0.00
2014-1-19,40,30,21,26,20,12,73,64,54,29.58,29.37,10,2,22,0.00
2014-1-20,49,40,34,30,28,24,77,63,45,29.55,29.29,16,2,21,0.00
2014-1-21,36,23,13,26,17,10,92,81,58,29.61,29.46,11,3,16,0.00
2014-1-22,15,9,3,10,2,-2,90,71,50,29.69,29.48,22,6,24,0.00
2014-1-23,23,15,6,9,4,-1,79,62,50,29.99,29.69,14,2,20,0.00
2014-1-24,20,14,9,6,2,0,68,58,46,30.10,29.73,13,3,18,0.00
2014-1-25,26,21,17,22,14,6,90,74,54,29.73,29.13,14,3,19,0.00
2014-1-26,28,23,14,23,12,5,89,65,43,29.60,29.21,12,2,22,0.02
2014-1-27,48,31,20,33,18,1,86,60,37,29.78,29.29,24,4,33,0.04
2014-1-28,20,15,11,3,-3,-6,59,45,39,30.07,29.78,14,4,24,0.00
2014-1-29,21,15,10,8,2,-4,85,57,37,29.99,29.82,13,2,24,0.00
2014-1-30,29,17,5,12,5,0,83,60,37,30.13,29.85,7,1,8,0.00
2014-1-31,47,31,18,25,18,12,85,62,31,29.90,29.77,13,1,13,0.00
2014-2-1,47,38,30,33,26,23,89,65,40,29.97,29.66,7,1,12,0.00
2014-2-2,56,42,29,40,34,27,95,75,43,29.74,29.59,6,0,9,0.00
2014-2-3,42,34,28,39,32,24,96,92,83,29.98,29.71,9,2,12,0.44
2014-2-4,34,28,21,29,24,18,91,85,75,30.12,29.84,7,1,9,0.27
2014-2-5,35,33,31,34,32,28,96,95,91,29.85,29.32,6,0,12,1.20
2014-2-6,31,25,23,26,19,15,87,78,64,29.97,29.68,8,2,24,0.03
2014-2-7,36,28,19,22,19,16,90,72,48,30.00,29.91,9,1,14,0.06
2014-2-8,29,25,21,21,15,7,80,67,42,30.01,29.83,8,1,9,0.00
2014-2-9,29,25,21,24,18,14,93,76,57,29.85,29.67,6,1,10,0.00
2014-2-10,28,23,14,23,14,9,93,69,49,29.96,29.69,11,3,17,0.00
2014-2-11,27,20,13,11,8,6,83,63,46,30.14,29.95,10,2,16,0.00
2014-2-12,26,20,9,21,10,3,90,66,48,30.20,29.87,7,1,10,0.00
2014-2-13,35,31,24,33,30,21,96,94,90,29.87,28.81,15,4,26,0.31
2014-2-14,44,35,30,32,28,25,96,76,51,29.44,28.84,20,3,26,0.86
2014-2-15,36,33,28,32,27,16,95,79,60,29.50,29.23,20,4,33,0.01
2014-2-16,30,25,20,18,14,10,74,62,48,29.81,29.51,14,4,20,0.00
2014-2-17,32,24,17,16,11,7,74,58,37,30.08,29.82,12,2,18,0.00
2014-2-18,46,34,25,34,27,14,94,78,58,29.93,29.63,10,1,16,0.20
2014-2-19,47,38,28,43,34,26,95,86,65,29.76,29.36,10,1,18,0.25
2014-2-20,52,42,28,35,29,23,92,62,37,29.94,29.64,9,1,12,0.01
2014-2-21,60,42,33,58,40,32,97,91,70,29.64,29.29,10,1,25,0.22
2014-2-22,59,43,29,41,30,24,97,65,26,29.75,29.61,14,1,19,0.01
2014-2-23,56,46,38,38,33,29,87,62,38,29.68,29.54,10,1,15,0.00
2014-2-24,38,34,28,34,19,12,90,56,35,29.78,29.54,19,4,24,0.01
2014-2-25,34,27,22,24,17,12,84,66,49,29.78,29.62,14,2,17,0.00
2014-2-26,31,25,16,27,14,2,91,64,34,29.65,29.51,15,2,23,0.01
2014-2-27,36,22,12,21,8,-10,86,57,31,29.81,29.32,22,4,30,0.01
2014-2-28,25,16,8,3,-5,-10,60,39,27,30.07,29.81,15,2,18,0.00
2014-3-1,40,22,12,24,12,3,82,67,36,30.06,29.83,6,0,10,0.00
2014-3-2,40,35,29,34,28,22,91,77,53,29.83,29.65,5,0,6,0.06
2014-3-3,32,20,15,27,13,2,92,74,54,29.99,29.66,14,4,18,0.00
2014-3-4,32,21,12,14,6,1,69,54,35,30.07,29.90,8,2,10,0.04
2014-3-5,42,30,17,17,12,8,79,52,26,30.08,29.85,13,2,15,0.00
2014-3-6,34,26,19,19,12,4,74,54,34,30.26,30.08,11,3,14,0.00
2014-3-7,41,33,26,31,26,19,80,73,65,30.08,29.57,7,2,13,0.00
2014-3-8,56,45,31,36,32,28,90,63,42,29.59,29.50,16,2,22,0.00
2014-3-9,45,40,36,36,26,17,89,59,36,29.72,29.57,14,3,17,0.01
2014-3-10,57,44,34,34,28,20,66,54,41,29.65,29.29,12,2,14,0.00
2014-3-11,64,53,42,42,38,32,74,57,44,29.37,29.26,13,1,13,0.00
2014-3-12,65,51,28,54,43,20,92,74,53,29.33,28.70,30,3,40,0.30
2014-3-13,31,25,19,20,6,1,70,46,28,29.79,28.97,32,9,40,0.00
2014-3-14,49,35,20,30,18,5,67,49,32,29.88,29.56,14,3,19,0.00
2014-3-15,62,51,43,36,30,25,58,45,31,29.70,29.45,15,4,24,0.00
2014-3-16,45,37,31,28,16,8,61,44,28,29.86,29.70,14,3,17,0.00
2014-3-17,32,27,22,22,19,9,91,71,40,29.77,29.67,8,2,16,0.07
2014-3-18,45,36,30,28,20,11,76,52,36,29.93,29.76,10,2,20,0.04
2014-3-19,46,40,34,43,36,28,96,85,74,29.91,29.50,11,2,14,0.70
2014-3-20,55,46,41,44,35,26,97,68,40,29.63,29.43,14,3,25,0.01
2014-3-21,54,43,34,28,25,20,72,51,27,29.71,29.62,16,2,23,0.00
2014-3-22,68,51,35,40,33,25,86,56,24,29.69,29.46,16,2,23,0.00
2014-3-23,49,41,30,29,24,13,59,51,38,29.80,29.64,12,3,18,0.00
2014-3-24,36,28,22,13,9,5,58,44,30,29.94,29.78,15,4,18,0.00
2014-3-25,38,29,20,29,22,12,91,74,55,29.82,29.53,9,1,14,0.00
2014-3-26,35,31,29,28,15,4,92,57,29,29.93,29.47,30,6,33,0.00
2014-3-27,45,34,21,26,14,4,68,45,30,30.09,29.91,9,2,14,0.00
2014-3-28,64,51,35,53,44,26,89,76,66,29.91,29.64,13,3,20,0.05
2014-3-29,58,49,46,51,46,44,97,91,76,29.78,29.27,13,3,18,1.34
2014-3-30,48,43,37,47,42,34,97,95,85,29.38,29.15,18,5,23,0.65
2014-3-31,58,45,35,38,34,32,94,68,37,29.75,29.38,21,6,26,0.05
2014-4-1,62,49,36,40,34,29,78,58,36,29.82,29.65,9,2,12,0.00
2014-4-2,63,49,41,49,43,36,92,79,57,29.80,29.69,6,1,10,0.03
2014-4-3,67,56,49,49,36,23,87,52,20,29.79,29.62,7,1,10,0.05
2014-4-4,50,46,44,43,40,37,86,80,76,29.69,29.50,14,4,18,0.00
2014-4-5,54,47,41,42,36,27,97,68,43,29.78,29.40,11,5,29,0.01
2014-4-6,62,50,35,32,25,21,69,40,22,29.89,29.79,10,2,15,0.00
2014-4-7,50,45,36,49,40,31,97,85,56,29.87,29.32,9,2,20,0.44
2014-4-8,64,57,50,57,48,37,98,75,46,29.34,29.12,14,4,24,0.08
2014-4-9,64,52,37,39,33,26,90,53,27,29.69,29.32,18,3,22,0.00
2014-4-10,66,53,35,40,34,30,86,52,32,29.89,29.70,15,3,20,0.00
2014-4-11,79,63,52,53,45,36,81,55,28,29.72,29.59,13,2,17,0.00
2014-4-12,74,62,51,53,44,33,92,56,26,29.91,29.69,10,2,15,0.00
2014-4-13,82,66,52,58,54,44,91,67,38,29.85,29.65,19,4,19,0.00
2014-4-14,78,68,61,60,58,55,86,71,46,29.69,29.50,17,5,24,0.00
2014-4-15,68,57,35,66,55,34,97,92,78,29.64,29.19,19,6,26,1.29
2014-4-16,47,38,30,34,22,16,92,54,37,30.20,29.61,20,5,26,0.00
2014-4-17,59,43,32,42,29,22,78,58,36,30.35,30.21,14,1,16,0.32
2014-4-18,56,45,37,40,33,30,84,65,43,30.27,29.94,6,1,10,0.00
2014-4-19,68,54,38,42,34,24,95,56,19,29.98,29.89,10,2,17,0.00
2014-4-20,60,52,42,39,31,25,72,47,35,30.13,29.98,14,2,16,0.00
2014-4-21,71,54,34,46,32,23,81,49,17,29.98,29.56,8,1,9,0.00
2014-4-22,78,59,46,56,50,44,95,75,40,29.56,29.22,15,2,25,0.01
2014-4-23,58,52,45,49,37,30,76,57,47,29.59,29.25,23,6,32,0.00
2014-4-24,63,51,39,31,23,18,62,37,19,29.72,29.58,17,4,22,0.00
2014-4-25,67,52,37,45,30,19,90,46,22,29.72,29.40,9,2,14,0.00
2014-4-26,74,59,46,50,45,31,95,64,28,29.55,29.36,20,3,23,0.00
2014-4-27,63,54,42,39,36,34,77,52,37,29.79,29.55,14,2,19,0.00
2014-4-28,68,54,40,47,39,34,87,60,37,29.81,29.67,8,1,11,0.00
2014-4-29,49,48,46,46,43,41,91,83,76,29.94,29.76,14,3,22,0.00
2014-4-30,59,48,43,58,47,42,99,97,95,29.95,29.56,6,3,21,0.00
2014-5-1,81,67,59,63,59,53,99,79,39,29.54,29.37,3,1,13,0.00
2014-5-2,69,61,53,49,43,39,80,53,36,29.55,29.42,4,1,21,0.00
2014-5-3,72,60,47,54,45,40,91,61,36,29.56,29.41,4,1,16,0.00
2014-5-4,63,57,47,51,39,32,94,52,37,29.53,29.41,13,3,25,0.00
2014-5-5,69,58,47,39,35,29,66,45,23,29.64,29.53,14,3,20,0.00
2014-5-6,73,61,48,40,36,33,73,43,25,29.74,29.55,8,1,15,0.00
2014-5-7,68,58,46,48,39,33,77,51,29,29.90,29.74,5,0,10,0.00
2014-5-8,74,61,54,60,54,48,93,80,61,29.85,29.71,5,1,9,0.00
2014-5-9,75,67,56,65,61,54,94,81,67,29.82,29.63,6,1,10,0.00
2014-5-10,84,69,61,67,64,60,96,84,51,29.64,29.55,9,1,20,0.00
2014-5-11,81,69,58,63,54,46,96,64,32,29.78,29.58,9,1,13,0.00
2014-5-12,89,73,55,66,60,51,93,67,43,29.81,29.70,7,1,14,0.00
2014-5-13,76,66,54,68,58,48,97,76,50,29.91,29.69,8,1,15,0.00
2014-5-14,70,60,53,64,56,49,95,86,75,29.96,29.84,7,1,10,0.00
2014-5-15,83,70,60,71,65,59,98,86,58,29.87,29.68,17,2,19,0.00
2014-5-16,70,65,57,67,64,54,97,94,89,29.68,29.47,13,2,26,0.00
2014-5-17,71,59,47,54,47,42,95,69,36,29.80,29.57,8,1,11,0.00
2014-5-18,68,56,46,47,43,37,89,63,38,29.88,29.80,9,2,16,0.00
2014-5-19,74,59,43,46,41,36,91,57,27,29.92,29.79,11,1,18,0.00
2014-5-20,79,66,50,56,47,44,82,54,30,29.85,29.69,10,1,13,0.00
2014-5-21,68,63,58,62,58,53,94,82,64,29.72,29.56,3,0,5,0.00
2014-5-22,81,66,60,68,63,59,97,90,62,29.57,29.42,4,0,9,0.00
2014-5-23,77,64,55,62,54,49,96,71,40,29.65,29.50,10,2,17,0.00
2014-5-24,76,64,54,59,54,50,89,72,46,29.77,29.62,10,2,16,0.00
2014-5-25,75,59,54,59,55,52,97,88,50,29.80,29.74,6,0,8,0.00
2014-5-26,91,75,59,62,57,52,80,56,29,29.78,29.61,3,0,17,0.00
2014-5-27,92,75,64,71,62,55,96,67,44,29.62,29.49,11,0,20,0.00
2014-5-28,74,63,55,69,61,52,97,93,82,29.80,29.48,8,1,11,0.00
2014-5-29,59,55,53,53,50,49,92,84,75,29.89,29.81,4,0,10,0.00
2014-5-30,78,64,54,58,55,50,96,75,47,29.82,29.68,6,1,10,0.00
2014-5-31,78,67,54,53,49,42,87,57,28,29.96,29.75,11,1,16,0.00
2014-6-1,80,66,49,55,49,42,96,60,33,30.04,29.92,7,0,9,0.00
2014-6-2,84,68,49,58,53,46,94,62,40,29.95,29.72,10,1,11,0.00
2014-6-3,91,74,59,73,64,55,90,72,49,29.73,29.49,6,0,9,0.00
2014-6-4,90,75,64,65,61,56,93,65,32,29.53,29.41,9,1,10,0.00
2014-6-5,79,68,60,63,58,54,94,73,49,29.49,29.30,11,1,15,0.00
2014-6-6,78,67,54,56,54,51,92,65,44,29.65,29.49,11,1,14,0.00
2014-6-7,85,70,54,60,56,52,93,64,38,29.70,29.60,9,1,13,0.00
2014-6-8,88,74,59,65,59,56,96,63,35,29.64,29.53,8,1,12,0.00
2014-6-9,83,72,65,72,67,60,96,84,65,29.59,29.53,6,0,10,0.00
2014-6-10,86,74,69,75,70,67,97,88,66,29.63,29.56,4,0,8,0.00
2014-6-11,72,66,62,70,64,61,96,93,88,29.76,29.63,12,1,12,0.00
2014-6-12,72,66,62,71,66,61,99,97,95,29.74,29.55,7,0,9,0.00
2014-6-13,89,74,69,75,70,68,99,88,56,29.56,29.41,7,0,10,0.00
2014-6-14,76,68,56,67,57,50,95,68,47,29.76,29.47,14,2,19,0.00
2014-6-15,85,68,54,60,55,50,89,66,38,29.83,29.73,10,1,13,0.00
2014-6-16,92,75,57,66,60,55,96,65,34,29.82,29.71,5,0,9,0.00
2014-6-17,98,83,69,74,69,63,93,66,39,29.76,29.59,7,0,10,0.00
2014-6-18,97,85,75,73,68,64,82,59,39,29.64,29.52,10,2,19,0.00
2014-6-19,78,72,66,71,68,64,97,86,70,29.71,29.59,4,0,15,0.00
2014-6-20,83,72,61,65,54,47,94,57,31,29.70,29.58,8,1,14,0.00
2014-6-21,83,72,65,61,56,50,83,59,41,29.63,29.54,5,0,9,0.00
2014-6-22,87,72,60,66,61,58,96,70,41,29.70,29.57,6,0,7,0.00
2014-6-23,88,74,60,66,60,54,96,65,40,29.83,29.70,7,1,10,0.00
2014-6-24,87,75,62,67,63,58,92,68,45,29.83,29.69,10,1,13,0.00
2014-6-25,90,78,70,76,72,67,95,81,56,29.70,29.49,7,1,15,0.00
2014-6-26,87,77,69,72,68,65,98,77,50,29.64,29.51,12,1,14,0.00
2014-6-27,85,75,67,68,65,57,90,71,53,29.89,29.64,5,0,8,0.00
2014-6-28,90,75,60,65,61,57,95,63,40,29.96,29.87,6,0,8,0.14
2014-6-29,90,76,61,67,62,59,96,66,40,29.92,29.80,5,1,11,0.00
2014-6-30,88,77,66,70,66,58,94,72,45,29.81,29.63,10,1,12,0.00
2014-7-1,93,81,69,75,71,67,93,73,51,29.65,29.50,12,2,16,0.00
2014-7-2,96,84,73,80,75,71,94,77,56,29.60,29.48,9,1,21,0.03
2014-7-3,92,79,70,78,73,68,97,84,60,29.67,29.52,7,0,29,0.11
2014-7-4,76,70,63,70,62,51,96,77,49,29.78,29.61,16,3,20,0.08
2014-7-5,85,71,58,56,53,50,78,56,33,29.89,29.78,12,2,14,0.00
2014-7-6,88,75,59,64,59,54,86,61,35,29.81,29.63,12,1,12,0.00
2014-7-7,94,82,72,71,67,64,81,62,43,29.63,29.45,11,1,16,0.00
2014-7-8,96,83,69,72,69,66,91,65,43,29.53,29.35,10,2,18,0.17
2014-7-9,91,79,67,73,69,65,97,74,48,29.63,29.48,10,1,12,0.00
2014-7-10,90,78,70,71,67,63,94,71,42,29.81,29.63,6,1,10,0.00
2014-7-11,91,78,66,69,66,62,95,70,42,29.90,29.77,6,0,13,0.03
2014-7-12,93,78,64,72,66,62,96,70,42,29.90,29.80,8,1,12,0.00
2014-7-13,91,80,70,76,72,68,95,79,58,29.80,29.58,10,1,15,0.21
2014-7-14,93,79,70,77,73,68,97,83,56,29.61,29.46,7,0,10,0.12
2014-7-15,93,75,71,78,72,70,98,92,54,29.52,29.39,4,0,8,0.19
2014-7-16,86,74,63,70,64,58,97,74,43,29.58,29.43,7,1,10,0.06
2014-7-17,85,71,60,62,58,54,91,66,35,29.80,29.58,9,1,12,0.00
2014-7-18,86,72,56,61,56,52,94,63,33,29.91,29.80,6,1,9,0.00
2014-7-19,83,73,65,64,60,56,87,66,42,29.90,29.82,11,0,11,0.00
2014-7-20,83,74,66,66,63,61,88,71,50,29.82,29.75,6,0,10,0.00
2014-7-21,90,75,61,68,63,59,96,71,42,29.87,29.80,5,0,6,0.00
2014-7-22,90,77,63,73,67,61,96,73,53,29.87,29.74,8,1,10,0.00
2014-7-23,94,79,67,77,71,63,95,77,56,29.74,29.46,11,1,22,0.13
2014-7-24,84,74,68,70,63,57,96,71,43,29.60,29.51,9,1,12,0.00
2014-7-25,87,73,60,61,56,53,78,59,37,29.71,29.60,7,1,9,0.00
2014-7-26,83,71,60,72,65,56,94,83,65,29.69,29.57,5,0,6,0.14
2014-7-27,93,78,70,74,70,69,97,80,49,29.57,29.39,7,1,13,0.00
2014-7-28,85,76,66,71,64,61,98,67,49,29.44,29.22,12,2,21,0.34
2014-7-29,77,68,60,61,58,56,88,71,50,29.66,29.43,8,1,12,0.00
2014-7-30,84,70,57,60,56,53,89,66,38,29.73,29.65,8,1,11,0.00
2014-7-31,89,73,58,68,62,56,95,71,42,29.81,29.73,7,1,10,0.00
2014-8-1,85,74,68,73,68,65,94,84,63,29.86,29.81,9,0,12,0.00
2014-8-2,77,70,66,68,66,64,96,87,72,29.85,29.75,4,0,9,0.40
2014-8-3,77,69,66,68,66,64,97,89,72,29.80,29.74,4,0,8,0.13
2014-8-4,88,76,67,69,66,64,97,73,48,29.76,29.71,5,0,11,0.00
2014-8-5,92,77,63,69,65,62,97,69,38,29.73,29.59,7,1,14,0.00
2014-8-6,79,71,64,68,64,60,90,79,63,29.61,29.55,6,1,10,0.01
2014-8-7,85,73,64,64,60,56,91,65,41,29.71,29.59,9,1,15,0.00
2014-8-8,84,71,57,62,57,52,87,65,41,29.80,29.71,7,1,11,0.00
2014-8-9,90,74,59,63,59,55,93,64,31,29.80,29.74,8,0,10,0.00
2014-8-10,92,76,60,65,59,55,93,62,32,29.81,29.75,4,0,6,0.00
2014-8-11,86,74,60,66,62,57,96,69,41,29.81,29.72,6,1,12,0.00
2014-8-12,71,71,71,68,67,66,88,87,86,29.73,29.67,4,0,7,0.00
2014-8-17,77,70,64,63,62,60,86,75,61,29.59,29.55,2,0,4,0.00
2014-8-18,86,72,57,66,60,55,95,71,40,29.61,29.49,9,1,9,0.00
2014-8-19,88,75,62,68,64,58,94,71,46,29.60,29.51,5,0,8,0.00
2014-8-20,89,77,68,68,66,63,91,71,47,29.71,29.59,5,1,9,0.00
2014-8-21,84,75,66,72,68,64,94,80,63,29.73,29.65,6,0,9,0.00
2014-8-22,78,72,67,70,67,62,96,84,72,29.71,29.63,7,0,11,0.04
2014-8-23,71,66,62,66,64,61,95,91,80,29.79,29.68,5,0,7,0.20
2014-8-24,84,71,62,67,62,58,97,74,43,29.83,29.76,6,0,8,0.00
2014-8-25,88,73,57,66,61,56,97,72,41,29.85,29.79,8,0,10,0.00
2014-8-26,93,76,62,69,64,59,93,69,38,29.84,29.74,6,0,11,0.00
2014-8-27,95,78,61,71,66,60,96,71,38,29.76,29.55,6,0,8,0.00
2014-8-28,79,72,63,69,60,51,85,66,46,29.76,29.54,12,2,16,0.00
2014-8-29,82,68,55,61,54,50,85,63,37,29.91,29.76,7,1,9,0.00
2014-8-30,79,70,57,67,62,56,97,78,61,29.93,29.81,6,1,9,0.00
2014-8-31,92,78,70,77,72,66,97,83,55,29.82,29.64,9,1,13,0.48
2014-9-1,92,79,72,77,74,71,98,86,60,29.71,29.60,5,0,7,0.10
2014-9-2,95,81,71,76,72,68,97,78,47,29.63,29.50,7,0,18,0.18
2014-9-3,88,74,65,70,66,62,95,77,43,29.80,29.55,7,1,10,0.00
2014-9-4,90,75,62,71,64,60,98,72,43,29.87,29.78,7,1,10,0.00
2014-9-5,92,79,69,77,73,65,97,83,58,29.84,29.69,6,0,12,0.00
2014-9-6,97,79,71,78,72,67,97,83,50,29.70,29.53,15,1,15,0.04
2014-9-7,82,71,64,67,59,54,89,69,42,29.85,29.63,9,1,14,0.00
2014-9-8,75,68,61,64,60,57,93,76,56,29.96,29.84,10,1,12,0.00
2014-9-9,75,68,64,64,61,58,85,78,68,29.90,29.79,8,1,11,0.00
2014-9-10,83,72,65,65,62,60,90,72,48,29.79,29.68,4,0,9,0.00
2014-9-11,86,75,66,74,69,63,94,83,64,29.69,29.51,8,1,11,0.00
2014-9-12,77,68,60,65,56,53,80,67,49,29.83,29.62,14,2,15,0.00
2014-9-13,69,62,56,65,58,53,96,87,77,29.86,29.75,9,0,11,0.40
2014-9-14,72,59,50,55,51,48,96,78,48,29.97,29.85,10,1,13,0.00
2014-9-15,77,61,48,54,50,47,94,72,38,29.91,29.74,6,0,8,0.01
2014-9-16,73,63,54,62,56,51,96,80,58,29.74,29.64,7,1,12,0.12
2014-9-17,76,62,51,56,52,49,96,73,39,29.74,29.63,5,0,8,0.00
2014-9-18,75,62,50,61,55,48,97,80,54,29.77,29.63,5,0,8,0.00